createdAt,value
2018-07-17T00:00:57.256Z,0.00
2018-07-17T00:01:57.319Z,0.00
2018-07-17T00:03:50.323Z,0.00
2018-07-17T00:04:50.383Z,0.00
2018-07-17T00:06:43.384Z,0.00
2018-07-17T00:07:43.450Z,0.00
2018-07-17T00:09:37.031Z,0.00
2018-07-17T00:10:37.022Z,0.00
2018-07-17T00:12:30.027Z,0.00
2018-07-17T00:13:30.089Z,0.00
2018-07-17T00:15:23.097Z,0.00
2018-07-17T00:16:23.162Z,0.00
2018-07-17T00:18:16.162Z,0.00
2018-07-17T00:19:16.230Z,0.00
2018-07-17T00:21:09.237Z,0.00
2018-07-17T00:22:09.298Z,0.00
2018-07-17T00:24:02.305Z,0.00
2018-07-17T00:25:02.365Z,0.00
2018-07-17T00:26:55.367Z,0.00
2018-07-17T00:27:55.426Z,0.00
2018-07-17T00:29:48.445Z,0.00
2018-07-17T00:30:48.490Z,0.00
2018-07-17T00:32:41.490Z,0.00
2018-07-17T00:33:41.556Z,0.00
2018-07-17T00:35:34.565Z,0.00
2018-07-17T00:36:34.627Z,0.00
2018-07-17T00:38:27.619Z,0.00
2018-07-17T00:39:27.684Z,0.00
2018-07-17T00:41:20.693Z,0.00
2018-07-17T00:42:20.746Z,0.00
2018-07-17T00:44:13.741Z,0.00
2018-07-17T00:45:13.805Z,0.00
2018-07-17T00:47:06.810Z,0.00
2018-07-17T00:48:06.869Z,0.00
2018-07-17T00:49:59.871Z,0.00
2018-07-17T00:50:59.935Z,0.00
2018-07-17T00:52:52.940Z,0.00
2018-07-17T00:53:53.001Z,0.00
2018-07-17T00:55:46.130Z,0.00
2018-07-17T00:56:46.066Z,0.00
2018-07-17T00:58:39.067Z,0.00
2018-07-17T00:59:39.132Z,0.00
2018-07-17T01:01:32.168Z,0.00
2018-07-17T01:02:32.229Z,0.00
2018-07-17T01:04:25.230Z,0.00
2018-07-17T01:05:25.293Z,0.00
2018-07-17T01:07:18.297Z,0.00
2018-07-17T01:08:18.357Z,0.00
2018-07-17T01:10:11.349Z,0.00
2018-07-17T01:11:11.417Z,0.00
2018-07-17T01:13:04.426Z,0.00
2018-07-17T01:14:04.483Z,0.00
2018-07-17T01:15:57.494Z,0.00
2018-07-17T01:16:57.538Z,0.00
2018-07-17T01:18:50.534Z,0.00
2018-07-17T01:19:50.600Z,0.00
2018-07-17T01:21:43.614Z,0.00
2018-07-17T01:22:43.666Z,0.00
2018-07-17T01:24:36.662Z,0.00
2018-07-17T01:25:36.729Z,0.00
2018-07-17T01:27:29.734Z,0.00
2018-07-17T01:28:29.792Z,0.00
2018-07-17T01:30:22.789Z,0.00
2018-07-17T01:31:22.853Z,0.00
2018-07-17T01:33:15.858Z,0.00
2018-07-17T01:34:15.918Z,0.00
2018-07-17T01:36:08.920Z,0.00
2018-07-17T01:37:08.985Z,0.00
2018-07-17T01:39:01.997Z,0.00
2018-07-17T01:40:02.056Z,0.00
2018-07-17T01:41:55.067Z,0.00
2018-07-17T01:42:55.148Z,0.00
2018-07-17T01:44:48.110Z,0.00
2018-07-17T01:45:48.177Z,0.00
2018-07-17T01:47:41.179Z,0.00
2018-07-17T01:48:41.238Z,0.00
2018-07-17T01:50:34.235Z,0.00
2018-07-17T01:51:34.295Z,0.00
2018-07-17T01:53:27.302Z,0.00
2018-07-17T01:54:27.362Z,0.00
2018-07-17T01:56:20.357Z,0.00
2018-07-17T01:57:20.419Z,0.00
2018-07-17T01:59:13.427Z,0.00
2018-07-17T02:00:13.488Z,0.00
2018-07-17T02:02:06.488Z,0.00
2018-07-17T02:03:06.552Z,0.00
2018-07-17T02:04:59.560Z,0.00
2018-07-17T02:05:59.612Z,0.00
2018-07-17T02:07:52.614Z,0.00
2018-07-17T02:08:52.675Z,0.00
2018-07-17T02:10:45.670Z,0.00
2018-07-17T02:11:45.734Z,0.00
2018-07-17T02:13:38.741Z,0.00
2018-07-17T02:14:38.800Z,0.00
2018-07-17T02:16:31.808Z,0.00
2018-07-17T02:17:31.873Z,0.00
2018-07-17T02:19:24.882Z,0.00
2018-07-17T02:20:24.937Z,0.00
2018-07-17T02:22:17.929Z,0.00
2018-07-17T02:23:17.997Z,0.00
2018-07-17T02:25:11.012Z,0.00
2018-07-17T02:26:11.058Z,0.00
2018-07-17T02:28:04.066Z,0.00
2018-07-17T02:29:04.123Z,0.00
2018-07-17T02:30:57.116Z,0.00
2018-07-17T02:31:57.183Z,0.00
2018-07-17T02:33:50.189Z,0.00
2018-07-17T02:34:50.248Z,0.00
2018-07-17T02:36:43.248Z,0.00
2018-07-17T02:37:43.309Z,0.00
2018-07-17T02:39:36.310Z,0.00
2018-07-17T02:40:36.367Z,0.00
2018-07-17T02:42:29.425Z,0.00
2018-07-17T02:43:29.429Z,0.00
2018-07-17T02:45:22.431Z,0.00
2018-07-17T02:46:22.488Z,0.00
2018-07-17T02:48:15.492Z,0.00
2018-07-17T02:49:15.556Z,0.00
2018-07-17T02:51:08.565Z,0.00
2018-07-17T02:52:08.621Z,0.00
2018-07-17T02:54:01.635Z,0.00
2018-07-17T02:55:01.684Z,0.00
2018-07-17T02:56:54.680Z,0.00
2018-07-17T02:57:54.740Z,0.00
2018-07-17T02:59:47.747Z,0.00
2018-07-17T03:00:47.807Z,0.00
2018-07-17T03:02:40.806Z,0.00
2018-07-17T03:03:40.869Z,0.00
2018-07-17T03:05:33.873Z,0.00
2018-07-17T03:06:33.935Z,0.00
2018-07-17T03:08:26.935Z,0.00
2018-07-17T03:09:26.995Z,0.00
2018-07-17T03:11:19.998Z,0.00
2018-07-17T03:12:20.059Z,0.00
2018-07-17T03:14:13.082Z,0.00
2018-07-17T03:15:13.115Z,0.00
2018-07-17T03:17:06.113Z,0.00
2018-07-17T03:18:06.176Z,0.00
2018-07-17T03:19:59.184Z,0.00
2018-07-17T03:20:59.239Z,0.00
2018-07-17T03:22:52.239Z,5.63
2018-07-17T03:23:52.305Z,5.63
2018-07-17T03:25:45.302Z,5.63
2018-07-17T03:26:45.360Z,5.63
2018-07-17T03:28:38.359Z,5.63
2018-07-17T03:29:38.425Z,5.63
2018-07-17T03:31:31.437Z,11.25
2018-07-17T03:32:31.492Z,11.25
2018-07-17T03:34:24.483Z,11.25
2018-07-17T03:35:24.547Z,11.25
2018-07-17T03:37:17.550Z,16.88
2018-07-17T03:38:17.607Z,16.88
2018-07-17T03:40:10.611Z,16.88
2018-07-17T03:41:10.666Z,22.50
2018-07-17T03:43:03.679Z,22.50
2018-07-17T03:44:03.724Z,22.50
2018-07-17T03:45:56.725Z,28.13
2018-07-17T03:46:56.784Z,28.13
2018-07-17T03:48:49.783Z,28.13
2018-07-17T03:49:49.850Z,28.13
2018-07-17T03:51:42.846Z,33.75
2018-07-17T03:52:42.903Z,33.75
2018-07-17T03:54:35.906Z,39.38
2018-07-17T03:55:35.967Z,39.38
2018-07-17T03:57:28.969Z,45.00
2018-07-17T03:58:29.028Z,45.00
2018-07-17T04:00:22.032Z,50.63
2018-07-17T04:01:22.092Z,56.25
2018-07-17T04:03:15.090Z,61.88
2018-07-17T04:04:15.170Z,61.88
2018-07-17T04:06:08.155Z,67.50
2018-07-17T04:07:08.212Z,73.13
2018-07-17T04:09:01.720Z,78.75
2018-07-17T04:10:01.782Z,78.75
2018-07-17T04:11:54.780Z,84.38
2018-07-17T04:12:54.841Z,84.38
2018-07-17T04:14:47.838Z,90.00
2018-07-17T04:15:47.899Z,95.63
2018-07-17T04:17:40.901Z,101.25
2018-07-17T04:18:40.958Z,106.88
2018-07-17T04:20:33.955Z,123.75
2018-07-17T04:21:34.020Z,129.38
2018-07-17T04:23:27.023Z,140.63
2018-07-17T04:24:27.084Z,146.25
2018-07-17T04:26:20.099Z,151.88
2018-07-17T04:27:20.144Z,151.88
2018-07-17T04:29:13.142Z,151.88
2018-07-17T04:30:13.206Z,151.88
2018-07-17T04:32:06.206Z,157.50
2018-07-17T04:33:06.261Z,157.50
2018-07-17T04:34:59.263Z,157.50
2018-07-17T04:35:59.324Z,157.50
2018-07-17T04:37:52.330Z,163.13
2018-07-17T04:38:52.388Z,163.13
2018-07-17T04:40:45.381Z,163.13
2018-07-17T04:41:45.447Z,163.13
2018-07-17T04:43:38.453Z,163.13
2018-07-17T04:44:38.506Z,168.75
2018-07-17T04:46:31.506Z,174.38
2018-07-17T04:47:31.570Z,174.38
2018-07-17T04:49:24.569Z,180.00
2018-07-17T04:50:24.628Z,185.63
2018-07-17T04:52:17.630Z,191.25
2018-07-17T04:53:17.685Z,191.25
2018-07-17T04:55:10.679Z,196.88
2018-07-17T04:56:10.745Z,202.50
2018-07-17T04:58:03.746Z,208.13
2018-07-17T04:59:03.802Z,208.13
2018-07-17T05:00:56.796Z,213.75
2018-07-17T05:01:56.892Z,219.38
2018-07-17T05:03:49.859Z,219.38
2018-07-17T05:04:49.919Z,225.00
2018-07-17T05:06:42.910Z,230.63
2018-07-17T05:07:42.977Z,230.63
2018-07-17T05:09:36.487Z,236.25
2018-07-17T05:10:36.542Z,241.88
2018-07-17T05:12:29.535Z,247.50
2018-07-17T05:13:29.600Z,247.50
2018-07-17T05:15:22.600Z,253.13
2018-07-17T05:16:22.705Z,258.75
2018-07-17T05:18:15.658Z,264.38
2018-07-17T05:19:15.717Z,270.00
2018-07-17T05:21:08.717Z,270.00
2018-07-17T05:22:08.782Z,275.63
2018-07-17T05:24:01.790Z,281.25
2018-07-17T05:25:01.852Z,286.88
2018-07-17T05:26:54.840Z,298.13
2018-07-17T05:27:54.910Z,298.13
2018-07-17T05:29:47.907Z,309.38
2018-07-17T05:30:47.963Z,315.00
2018-07-17T05:32:40.964Z,320.63
2018-07-17T05:33:41.025Z,326.25
2018-07-17T05:35:34.055Z,331.88
2018-07-17T05:36:34.146Z,337.50
2018-07-17T05:38:27.080Z,343.13
2018-07-17T05:39:27.142Z,343.13
2018-07-17T05:41:20.142Z,348.75
2018-07-17T05:42:20.209Z,348.75
2018-07-17T05:44:13.213Z,360.00
2018-07-17T05:45:13.261Z,365.63
2018-07-17T05:47:06.256Z,371.25
2018-07-17T05:48:06.323Z,376.88
2018-07-17T05:49:59.323Z,388.13
2018-07-17T05:50:59.382Z,393.75
2018-07-17T05:52:52.382Z,410.63
2018-07-17T05:53:52.444Z,416.25
2018-07-17T05:55:45.449Z,433.13
2018-07-17T05:56:45.508Z,438.75
2018-07-17T05:58:38.504Z,438.75
2018-07-17T05:59:38.568Z,444.38
2018-07-17T06:01:31.573Z,478.13
2018-07-17T06:02:31.632Z,483.75
2018-07-17T06:04:24.632Z,495.00
2018-07-17T06:05:24.694Z,495.00
2018-07-17T06:07:17.696Z,495.00
2018-07-17T06:08:17.759Z,489.38
2018-07-17T06:10:10.806Z,495.00
2018-07-17T06:11:10.816Z,500.63
2018-07-17T06:13:03.817Z,523.13
2018-07-17T06:14:03.886Z,528.75
2018-07-17T06:15:56.885Z,556.88
2018-07-17T06:16:56.945Z,579.38
2018-07-17T06:18:49.953Z,601.88
2018-07-17T06:19:50.013Z,630.00
2018-07-17T06:21:43.016Z,708.75
2018-07-17T06:22:43.080Z,810.00
2018-07-17T06:24:36.073Z,1923.75
2018-07-17T06:25:36.141Z,2233.13
2018-07-17T06:27:29.150Z,2261.25
2018-07-17T06:28:29.209Z,2233.13
2018-07-17T06:30:22.210Z,2385.00
2018-07-17T06:31:22.273Z,2345.63
2018-07-17T06:33:15.277Z,2199.38
2018-07-17T06:34:15.342Z,2261.25
2018-07-17T06:36:08.349Z,2199.38
2018-07-17T06:37:08.415Z,2154.38
2018-07-17T06:39:01.421Z,2283.75
2018-07-17T06:40:01.493Z,2396.25
2018-07-17T06:41:54.559Z,2497.50
2018-07-17T06:42:54.570Z,2570.63
2018-07-17T06:44:47.580Z,2520.00
2018-07-17T06:45:47.652Z,2548.13
2018-07-17T06:47:40.676Z,2739.38
2018-07-17T06:48:40.733Z,2621.25
2018-07-17T06:50:33.900Z,2823.75
2018-07-17T06:51:33.815Z,2851.88
2018-07-17T06:53:26.835Z,2711.25
2018-07-17T06:54:26.904Z,2818.13
2018-07-17T06:56:19.969Z,2964.38
2018-07-17T06:57:20.047Z,3065.63
2018-07-17T06:59:13.060Z,3009.38
2018-07-17T07:00:13.135Z,3183.75
2018-07-17T07:02:06.152Z,3076.88
2018-07-17T07:03:06.222Z,3161.25
2018-07-17T07:04:59.232Z,3211.88
2018-07-17T07:05:59.308Z,3245.63
2018-07-17T07:07:52.336Z,3121.88
2018-07-17T07:08:52.400Z,3093.75
2018-07-17T07:10:45.420Z,3116.25
2018-07-17T07:11:45.497Z,3228.75
2018-07-17T07:13:38.515Z,2863.13
2018-07-17T07:14:38.585Z,2655.00
2018-07-17T07:16:31.608Z,3026.25
2018-07-17T07:17:31.679Z,3166.88
2018-07-17T07:19:24.699Z,3099.38
2018-07-17T07:20:24.771Z,3026.25
2018-07-17T07:22:17.795Z,3195.00
2018-07-17T07:23:17.870Z,3358.13
2018-07-17T07:25:10.882Z,3234.38
2018-07-17T07:26:10.957Z,3301.88
2018-07-17T07:28:03.983Z,3223.13
2018-07-17T07:29:04.053Z,3155.63
2018-07-17T07:30:57.106Z,3330.00
2018-07-17T07:31:57.192Z,3363.75
2018-07-17T07:33:50.176Z,3313.13
2018-07-17T07:34:50.243Z,3245.63
2018-07-17T07:36:43.775Z,3414.38
2018-07-17T07:37:43.850Z,3335.63
2018-07-17T07:39:36.878Z,3425.63
2018-07-17T07:40:36.949Z,3493.13
2018-07-17T07:42:29.978Z,3549.38
2018-07-17T07:43:30.048Z,3363.75
2018-07-17T07:45:23.069Z,3431.25
2018-07-17T07:46:23.145Z,3515.63
2018-07-17T07:48:16.181Z,3363.75
2018-07-17T07:49:16.328Z,3375.00
2018-07-17T07:51:09.270Z,3453.75
2018-07-17T07:52:09.348Z,3510.00
2018-07-17T07:54:02.376Z,3521.25
2018-07-17T07:55:02.446Z,3476.25
2018-07-17T07:56:55.469Z,3436.88
2018-07-17T07:57:55.551Z,3273.75
2018-07-17T07:59:48.580Z,3521.25
2018-07-17T08:00:48.651Z,3431.25
2018-07-17T08:02:41.686Z,3622.50
2018-07-17T08:03:41.791Z,3571.88
2018-07-17T08:05:34.781Z,3476.25
2018-07-17T08:06:34.861Z,3425.63
2018-07-17T08:08:27.890Z,3588.75
2018-07-17T08:09:27.960Z,3543.75
2018-07-17T08:11:21.489Z,3695.63
2018-07-17T08:12:21.629Z,3521.25
2018-07-17T08:14:15.108Z,3661.88
2018-07-17T08:15:15.179Z,3515.63
2018-07-17T08:17:08.200Z,3560.63
2018-07-17T08:18:08.278Z,3431.25
2018-07-17T08:20:01.310Z,3594.38
2018-07-17T08:21:01.381Z,3757.50
2018-07-17T08:22:54.412Z,3701.25
2018-07-17T08:23:54.493Z,3650.63
2018-07-17T08:25:47.522Z,3785.63
2018-07-17T08:26:47.596Z,3886.88
2018-07-17T08:28:40.629Z,3825.00
2018-07-17T08:29:40.767Z,3847.50
2018-07-17T08:31:33.779Z,3791.25
2018-07-17T08:32:33.802Z,3864.38
2018-07-17T08:34:26.838Z,3976.88
2018-07-17T08:35:26.908Z,3858.75
2018-07-17T08:37:19.930Z,3853.13
2018-07-17T08:38:20.012Z,3768.75
2018-07-17T08:40:13.043Z,3780.00
2018-07-17T08:41:13.117Z,3673.13
2018-07-17T08:43:06.152Z,3695.63
2018-07-17T08:44:06.222Z,3796.88
2018-07-17T08:45:59.259Z,3802.50
2018-07-17T08:46:59.335Z,3735.00
2018-07-17T08:48:52.359Z,3830.63
2018-07-17T08:49:52.440Z,3858.75
2018-07-17T08:51:45.472Z,3639.38
2018-07-17T08:52:45.545Z,3723.75
2018-07-17T08:54:38.677Z,3931.88
2018-07-17T08:55:38.655Z,3841.88
2018-07-17T08:57:31.688Z,3780.00
2018-07-17T08:58:31.769Z,2081.25
2018-07-17T09:00:24.879Z,3993.75
2018-07-17T09:01:24.873Z,3791.25
2018-07-17T09:03:17.900Z,2491.88
2018-07-17T09:04:17.990Z,3369.38
2018-07-17T09:06:11.015Z,2750.63
2018-07-17T09:07:11.089Z,3870.00
2018-07-17T09:09:04.117Z,3633.75
2018-07-17T09:10:04.197Z,3751.88
2018-07-17T09:11:57.234Z,3746.25
2018-07-17T09:12:57.329Z,3695.63
2018-07-17T09:14:50.851Z,3656.25
2018-07-17T09:15:50.921Z,3611.25
2018-07-17T09:17:43.968Z,3481.88
2018-07-17T09:18:44.047Z,3330.00
2018-07-17T09:20:37.088Z,3459.38
2018-07-17T09:21:37.244Z,3690.00
2018-07-17T09:23:30.198Z,3706.88
2018-07-17T09:24:30.283Z,3594.38
2018-07-17T09:26:23.320Z,4027.50
2018-07-17T09:27:23.393Z,3920.63
2018-07-17T09:29:16.423Z,3841.88
2018-07-17T09:30:16.502Z,3718.13
2018-07-17T09:32:09.536Z,3622.50
2018-07-17T09:33:09.614Z,3813.75
2018-07-17T09:35:02.649Z,1569.38
2018-07-17T09:36:02.722Z,1136.25
2018-07-17T09:37:55.748Z,1074.38
2018-07-17T09:38:55.850Z,1091.25
2018-07-17T09:40:48.868Z,1170.00
2018-07-17T09:41:48.942Z,1164.38
2018-07-17T09:43:41.965Z,1220.63
2018-07-17T09:44:42.053Z,1198.13
2018-07-17T09:46:35.076Z,1243.13
2018-07-17T09:47:35.146Z,1248.75
2018-07-17T09:49:28.166Z,1231.88
2018-07-17T09:50:28.244Z,1181.25
2018-07-17T09:52:21.270Z,1113.75
2018-07-17T09:53:21.339Z,1096.88
2018-07-17T09:55:14.367Z,1057.50
2018-07-17T09:56:14.447Z,1035.00
2018-07-17T09:58:07.471Z,978.75
2018-07-17T09:59:07.540Z,950.63
2018-07-17T10:01:00.567Z,905.63
2018-07-17T10:02:00.633Z,883.13
2018-07-17T10:03:53.650Z,855.00
2018-07-17T10:04:53.725Z,849.38
2018-07-17T10:06:46.747Z,855.00
2018-07-17T10:07:46.816Z,883.13
2018-07-17T10:09:39.839Z,956.25
2018-07-17T10:10:39.913Z,984.38
2018-07-17T10:12:32.936Z,945.00
2018-07-17T10:13:33.005Z,928.13
2018-07-17T10:15:26.057Z,883.13
2018-07-17T10:16:26.093Z,894.38
2018-07-17T10:18:19.113Z,855.00
2018-07-17T10:19:19.180Z,826.88
2018-07-17T10:21:12.206Z,753.75
2018-07-17T10:22:12.273Z,765.00
2018-07-17T10:24:05.292Z,753.75
2018-07-17T10:25:05.358Z,736.88
2018-07-17T10:26:58.378Z,714.38
2018-07-17T10:27:58.444Z,703.13
2018-07-17T10:29:51.468Z,691.88
2018-07-17T10:30:51.530Z,686.25
2018-07-17T10:32:44.553Z,686.25
2018-07-17T10:33:44.620Z,675.00
2018-07-17T10:35:37.633Z,663.75
2018-07-17T10:36:37.707Z,663.75
2018-07-17T10:38:30.755Z,669.38
2018-07-17T10:39:30.795Z,669.38
2018-07-17T10:41:23.825Z,669.38
2018-07-17T10:42:23.882Z,675.00
2018-07-17T10:44:16.905Z,680.63
2018-07-17T10:45:16.967Z,675.00
2018-07-17T10:47:09.987Z,669.38
2018-07-17T10:48:10.053Z,663.75
2018-07-17T10:50:03.067Z,652.50
2018-07-17T10:51:03.147Z,652.50
2018-07-17T10:52:56.157Z,630.00
2018-07-17T10:53:56.244Z,613.13
2018-07-17T10:55:49.234Z,601.88
2018-07-17T10:56:49.307Z,596.25
2018-07-17T10:58:42.361Z,596.25
2018-07-17T10:59:42.399Z,590.63
2018-07-17T11:01:35.419Z,573.75
2018-07-17T11:02:35.484Z,568.13
2018-07-17T11:04:28.502Z,562.50
2018-07-17T11:05:28.568Z,568.13
2018-07-17T11:07:21.600Z,556.88
2018-07-17T11:08:21.719Z,551.25
2018-07-17T11:10:14.666Z,540.00
2018-07-17T11:11:14.735Z,540.00
2018-07-17T11:13:07.784Z,540.00
2018-07-17T11:14:07.829Z,540.00
2018-07-17T11:16:00.843Z,528.75
2018-07-17T11:17:00.914Z,528.75
2018-07-17T11:18:53.927Z,523.13
2018-07-17T11:19:54.002Z,517.50
2018-07-17T11:21:47.011Z,523.13
2018-07-17T11:22:47.088Z,511.88
2018-07-17T11:24:40.138Z,506.25
2018-07-17T11:25:40.214Z,500.63
2018-07-17T11:27:33.220Z,489.38
2018-07-17T11:28:33.252Z,489.38
2018-07-17T11:30:26.274Z,500.63
2018-07-17T11:31:26.401Z,495.00
2018-07-17T11:33:19.875Z,506.25
2018-07-17T11:34:19.935Z,511.88
2018-07-17T11:36:12.943Z,517.50
2018-07-17T11:37:13.016Z,517.50
2018-07-17T11:39:06.039Z,511.88
2018-07-17T11:40:06.102Z,511.88
2018-07-17T11:41:59.115Z,511.88
2018-07-17T11:42:59.186Z,506.25
2018-07-17T11:44:52.206Z,523.13
2018-07-17T11:45:52.269Z,528.75
2018-07-17T11:47:45.333Z,517.50
2018-07-17T11:48:45.348Z,495.00
2018-07-17T11:50:39.325Z,579.38
2018-07-17T11:51:38.429Z,641.25
2018-07-17T11:53:31.460Z,675.00
2018-07-17T11:54:31.506Z,669.38
2018-07-17T11:56:24.545Z,680.63
2018-07-17T11:57:24.600Z,697.50
2018-07-17T11:59:17.696Z,770.63
2018-07-17T12:00:17.681Z,781.88
2018-07-17T12:02:10.692Z,759.38
2018-07-17T12:03:10.769Z,714.38
2018-07-17T12:05:03.803Z,630.00
2018-07-17T12:06:03.857Z,596.25
2018-07-17T12:07:56.876Z,568.13
2018-07-17T12:08:56.941Z,551.25
2018-07-17T12:10:49.958Z,534.38
2018-07-17T12:11:50.025Z,523.13
2018-07-17T12:13:43.049Z,461.25
2018-07-17T12:14:43.108Z,450.00
2018-07-17T12:16:36.128Z,450.00
2018-07-17T12:17:36.197Z,478.13
2018-07-17T12:19:29.213Z,556.88
2018-07-17T12:20:29.455Z,596.25
2018-07-17T12:22:22.289Z,568.13
2018-07-17T12:23:22.364Z,528.75
2018-07-17T12:25:15.381Z,478.13
2018-07-17T12:26:15.442Z,483.75
2018-07-17T12:28:08.530Z,511.88
2018-07-17T12:29:08.532Z,528.75
2018-07-17T12:31:01.544Z,495.00
2018-07-17T12:32:01.609Z,472.50
2018-07-17T12:33:56.133Z,433.13
2018-07-17T12:34:56.235Z,405.00
2018-07-17T12:36:49.218Z,371.25
2018-07-17T12:37:49.302Z,360.00
2018-07-17T12:39:42.315Z,382.50
2018-07-17T12:40:42.369Z,427.50
2018-07-17T12:42:35.380Z,410.63
2018-07-17T12:43:35.450Z,393.75
2018-07-17T12:45:28.473Z,365.63
2018-07-17T12:46:28.534Z,348.75
2018-07-17T12:48:21.545Z,348.75
2018-07-17T12:49:21.617Z,354.38
2018-07-17T12:51:14.637Z,348.75
2018-07-17T12:52:14.704Z,348.75
2018-07-17T12:54:07.711Z,331.88
2018-07-17T12:55:07.783Z,326.25
2018-07-17T12:57:00.800Z,348.75
2018-07-17T12:58:00.896Z,405.00
2018-07-17T12:59:53.877Z,438.75
2018-07-17T13:00:53.949Z,421.88
2018-07-17T13:02:46.995Z,376.88
2018-07-17T13:03:47.031Z,360.00
2018-07-17T13:05:40.047Z,337.50
2018-07-17T13:06:40.113Z,331.88
2018-07-17T13:08:33.123Z,354.38
2018-07-17T13:09:33.193Z,399.38
2018-07-17T13:11:26.211Z,427.50
2018-07-17T13:12:26.273Z,410.63
2018-07-17T13:14:19.283Z,365.63
2018-07-17T13:15:19.373Z,337.50
2018-07-17T13:17:12.369Z,298.13
2018-07-17T13:18:12.432Z,298.13
2018-07-17T13:20:05.461Z,292.50
2018-07-17T13:21:05.519Z,286.88
2018-07-17T13:22:58.536Z,281.25
2018-07-17T13:23:58.601Z,281.25
2018-07-17T13:25:51.635Z,275.63
2018-07-17T13:26:51.681Z,281.25
2018-07-17T13:28:44.692Z,281.25
2018-07-17T13:29:44.764Z,275.63
2018-07-17T13:31:37.829Z,270.00
2018-07-17T13:32:37.853Z,270.00
2018-07-17T13:34:30.874Z,264.38
2018-07-17T13:35:30.935Z,264.38
2018-07-17T13:37:24.011Z,258.75
2018-07-17T13:38:24.064Z,253.13
2018-07-17T13:40:17.063Z,247.50
2018-07-17T13:41:17.132Z,247.50
2018-07-17T13:43:10.151Z,208.13
2018-07-17T13:44:10.214Z,241.88
2018-07-17T13:46:03.227Z,247.50
2018-07-17T13:47:03.298Z,247.50
2018-07-17T13:48:57.830Z,247.50
2018-07-17T13:49:57.885Z,247.50
2018-07-17T13:51:50.904Z,264.38
2018-07-17T13:52:51.035Z,258.75
2018-07-17T13:54:43.984Z,253.13
2018-07-17T13:55:44.059Z,253.13
2018-07-17T13:57:37.070Z,253.13
2018-07-17T13:58:37.134Z,258.75
2018-07-17T14:00:30.144Z,270.00
2018-07-17T14:01:30.216Z,281.25
2018-07-17T14:03:23.234Z,264.38
2018-07-17T14:04:23.298Z,258.75
2018-07-17T14:06:16.317Z,258.75
2018-07-17T14:07:16.391Z,219.38
2018-07-17T14:09:09.408Z,281.25
2018-07-17T14:10:09.474Z,320.63
2018-07-17T14:12:02.495Z,376.88
2018-07-17T14:13:02.560Z,427.50
2018-07-17T14:14:55.573Z,455.63
2018-07-17T14:15:55.648Z,450.00
2018-07-17T14:17:48.651Z,393.75
2018-07-17T14:18:48.719Z,360.00
2018-07-17T14:20:41.728Z,360.00
2018-07-17T14:21:41.799Z,348.75
2018-07-17T14:23:34.867Z,376.88
2018-07-17T14:24:34.879Z,371.25
2018-07-17T14:26:27.886Z,275.63
2018-07-17T14:27:27.955Z,264.38
2018-07-17T14:29:20.979Z,326.25
2018-07-17T14:30:21.152Z,348.75
2018-07-17T14:32:14.058Z,365.63
2018-07-17T14:33:14.124Z,388.13
2018-07-17T14:35:07.165Z,393.75
2018-07-17T14:36:07.204Z,388.13
2018-07-17T14:38:00.264Z,331.88
2018-07-17T14:39:00.308Z,309.38
2018-07-17T14:40:53.295Z,292.50
2018-07-17T14:41:53.370Z,292.50
2018-07-17T14:43:46.377Z,275.63
2018-07-17T14:44:46.452Z,270.00
2018-07-17T14:46:39.458Z,253.13
2018-07-17T14:47:39.528Z,247.50
2018-07-17T14:49:32.543Z,309.38
2018-07-17T14:50:32.605Z,337.50
2018-07-17T14:52:25.615Z,365.63
2018-07-17T14:53:25.690Z,343.13
2018-07-17T14:55:18.709Z,326.25
2018-07-17T14:56:18.774Z,309.38
2018-07-17T14:58:11.786Z,298.13
2018-07-17T14:59:11.857Z,298.13
2018-07-17T15:01:04.877Z,298.13
2018-07-17T15:02:04.942Z,303.75
2018-07-17T15:03:57.949Z,292.50
2018-07-17T15:04:58.020Z,286.88
2018-07-17T15:06:51.035Z,298.13
2018-07-17T15:07:51.100Z,292.50
2018-07-17T15:09:44.170Z,270.00
2018-07-17T15:10:44.181Z,264.38
2018-07-17T15:12:37.192Z,258.75
2018-07-17T15:13:37.262Z,253.13
2018-07-17T15:15:30.364Z,247.50
2018-07-17T15:16:30.348Z,253.13
2018-07-17T15:18:23.353Z,241.88
2018-07-17T15:19:23.425Z,241.88
2018-07-17T15:21:16.442Z,241.88
2018-07-17T15:22:16.506Z,247.50
2018-07-17T15:24:09.514Z,247.50
2018-07-17T15:25:09.582Z,247.50
2018-07-17T15:27:02.595Z,247.50
2018-07-17T15:28:02.711Z,253.13
2018-07-17T15:29:55.674Z,253.13
2018-07-17T15:30:55.785Z,253.13
2018-07-17T15:32:48.783Z,258.75
2018-07-17T15:33:48.838Z,253.13
2018-07-17T15:35:41.830Z,241.88
2018-07-17T15:36:41.897Z,236.25
2018-07-17T15:38:34.961Z,230.63
2018-07-17T15:39:34.978Z,230.63
2018-07-17T15:41:28.001Z,230.63
2018-07-17T15:42:28.061Z,230.63
2018-07-17T15:44:21.074Z,230.63
2018-07-17T15:45:21.186Z,230.63
2018-07-17T15:47:14.162Z,225.00
2018-07-17T15:48:14.225Z,230.63
2018-07-17T15:50:07.228Z,230.63
2018-07-17T15:51:07.300Z,236.25
2018-07-17T15:53:00.338Z,236.25
2018-07-17T15:54:00.419Z,236.25
2018-07-17T15:55:53.390Z,202.50
2018-07-17T15:56:53.461Z,208.13
2018-07-17T15:58:46.474Z,230.63
2018-07-17T15:59:46.649Z,230.63
2018-07-17T16:01:42.110Z,213.75
2018-07-17T16:02:41.456Z,208.13
2018-07-17T16:04:34.824Z,202.50
2018-07-17T16:05:34.536Z,196.88
2018-07-17T16:07:27.611Z,202.50
2018-07-17T16:08:27.611Z,230.63
2018-07-17T16:10:20.616Z,236.25
2018-07-17T16:11:20.688Z,247.50
2018-07-17T16:13:13.710Z,241.88
2018-07-17T16:14:13.965Z,247.50
2018-07-17T16:16:06.928Z,264.38
2018-07-17T16:17:06.998Z,264.38
2018-07-17T16:19:00.038Z,264.38
2018-07-17T16:20:00.087Z,270.00
2018-07-17T16:21:53.088Z,236.25
2018-07-17T16:22:53.150Z,230.63
2018-07-17T16:24:46.668Z,202.50
2018-07-17T16:25:46.734Z,196.88
2018-07-17T16:27:39.745Z,180.00
2018-07-17T16:28:39.814Z,191.25
2018-07-17T16:30:32.817Z,180.00
2018-07-17T16:31:32.889Z,185.63
2018-07-17T16:33:25.900Z,213.75
2018-07-17T16:34:25.968Z,196.88
2018-07-17T16:36:18.971Z,196.88
2018-07-17T16:37:19.042Z,208.13
2018-07-17T16:39:12.057Z,208.13
2018-07-17T16:40:12.120Z,208.13
2018-07-17T16:42:05.201Z,202.50
2018-07-17T16:43:05.214Z,191.25
2018-07-17T16:44:58.210Z,196.88
2018-07-17T16:45:58.288Z,180.00
2018-07-17T16:47:51.308Z,191.25
2018-07-17T16:48:51.362Z,185.63
2018-07-17T16:50:44.420Z,191.25
2018-07-17T16:51:44.437Z,180.00
2018-07-17T16:53:37.457Z,213.75
2018-07-17T16:54:37.516Z,219.38
2018-07-17T16:56:30.523Z,230.63
2018-07-17T16:57:30.598Z,236.25
2018-07-17T16:59:23.607Z,230.63
2018-07-17T17:00:23.668Z,208.13
2018-07-17T17:02:16.677Z,213.75
2018-07-17T17:03:16.745Z,208.13
2018-07-17T17:05:09.758Z,202.50
2018-07-17T17:06:10.820Z,196.88
2018-07-17T17:08:02.862Z,196.88
2018-07-17T17:09:02.935Z,208.13
2018-07-17T17:10:55.925Z,213.75
2018-07-17T17:11:55.990Z,208.13
2018-07-17T17:13:49.000Z,196.88
2018-07-17T17:14:49.106Z,196.88
2018-07-17T17:16:42.072Z,196.88
2018-07-17T17:17:42.143Z,196.88
2018-07-17T17:19:35.156Z,191.25
2018-07-17T17:20:35.219Z,191.25
2018-07-17T17:22:28.225Z,191.25
2018-07-17T17:23:28.295Z,191.25
2018-07-17T17:25:21.384Z,191.25
2018-07-17T17:26:21.375Z,191.25
2018-07-17T17:28:14.893Z,213.75
2018-07-17T17:29:15.018Z,213.75
2018-07-17T17:31:07.974Z,236.25
2018-07-17T17:32:08.039Z,253.13
2018-07-17T17:34:01.239Z,264.38
2018-07-17T17:35:01.118Z,270.00
2018-07-17T17:36:54.129Z,281.25
2018-07-17T17:37:54.195Z,281.25
2018-07-17T17:39:47.311Z,264.38
2018-07-17T17:40:47.277Z,236.25
2018-07-17T17:42:40.352Z,202.50
2018-07-17T17:43:40.351Z,191.25
2018-07-17T17:45:33.442Z,174.38
2018-07-17T17:46:33.430Z,174.38
2018-07-17T17:48:26.509Z,163.13
2018-07-17T17:49:26.503Z,163.13
2018-07-17T17:51:19.515Z,163.13
2018-07-17T17:52:19.576Z,157.50
2018-07-17T17:54:12.583Z,157.50
2018-07-17T17:55:12.741Z,157.50
2018-07-17T17:57:05.714Z,174.38
2018-07-17T17:58:05.923Z,180.00
2018-07-17T17:59:58.816Z,174.38
2018-07-17T18:00:58.818Z,180.00
2018-07-17T18:02:51.831Z,202.50
2018-07-17T18:03:51.901Z,219.38
2018-07-17T18:05:44.914Z,236.25
2018-07-17T18:06:44.973Z,247.50
2018-07-17T18:08:37.996Z,241.88